Time;durP1;ratioP1;P1;durP2;ratioP2;P2;SDS_P1;SDS_P2;PMS_P1;PMS_P2;Temp;Humidity;BMP_temperature;BMP_pressure;BME280_temperature;BME280_humidity;BME280_pressure;Samples;Min_cycle;Max_cycle;Signal;HPM_P1;HPM_P2
2021/12/14 00:01:27;;;;;;;8.18;4.05;;;;;;;;;;5034644;28;20045;-74
2021/12/14 00:03:56;;;;;;;14.85;4.55;;;;;;;;;;5026133;28;20079;-74
2021/12/14 00:06:22;;;;;;;12.77;4.63;;;;;;;;;;5050971;28;20477;-73
2021/12/14 00:08:59;;;;;;;10.63;5.35;;;;;;;;;;5035677;28;20036;-73
2021/12/14 00:14:14;;;;;;;14.70;4.75;;;;;;;;;;5034053;28;20041;-70
2021/12/14 00:16:41;;;;;;;8.23;4.72;;;;;;;;;;5035156;28;20539;-74
2021/12/14 00:19:07;;;;;;;11.02;4.75;;;;;;;;;;5035475;28;20038;-74
2021/12/14 00:21:32;;;;;;;7.60;4.87;;;;;;;;;;5035664;28;20044;-73
2021/12/14 00:24:07;;;;;;;10.00;5.03;;;;;;;;;;5035672;28;20450;-73
2021/12/14 00:26:43;;;;;;;10.95;4.70;;;;;;;;;;5035252;28;20067;-73
2021/12/14 00:29:18;;;;;;;13.57;5.35;;;;;;;;;;5035310;28;20033;-73
2021/12/14 00:31:44;;;;;;;9.88;4.45;;;;;;;;;;5033506;28;20048;-73
2021/12/14 00:34:09;;;;;;;12.83;5.07;;;;;;;;;;5034072;28;20037;-73
2021/12/14 00:36:37;;;;;;;12.37;6.13;;;;;;;;;;5034990;28;20033;-72
2021/12/14 00:39:08;;;;;;;11.20;5.03;;;;;;;;;;5050133;28;20112;-74
2021/12/14 00:41:37;;;;;;;7.47;4.53;;;;;;;;;;5025934;28;20477;-70
2021/12/14 00:44:03;;;;;;;10.93;4.43;;;;;;;;;;5034982;28;20069;-70
2021/12/14 00:46:28;;;;;;;12.87;4.37;;;;;;;;;;5035015;28;20071;-70
2021/12/14 00:48:55;;;;;;;12.67;4.87;;;;;;;;;;5034542;28;20351;-70
2021/12/14 00:51:26;;;;;;;12.20;4.53;;;;;;;;;;5034866;28;20061;-70
2021/12/14 00:53:52;;;;;;;10.95;4.35;;;;;;;;;;5034881;28;20044;-70
2021/12/14 00:56:17;;;;;;;8.30;4.13;;;;;;;;;;5034848;28;20389;-70
2021/12/14 00:58:43;;;;;;;13.73;3.97;;;;;;;;;;5033487;28;20037;-70
2021/12/14 01:01:13;;;;;;;11.88;4.93;;;;;;;;;;5034181;28;20079;-73
2021/12/14 01:03:41;;;;;;;12.02;4.57;;;;;;;;;;5013339;28;20069;-72
2021/12/14 01:06:10;;;;;;;8.98;4.85;;;;;;;;;;5025861;28;20120;-73
2021/12/14 01:08:39;;;;;;;11.57;4.32;;;;;;;;;;5033498;28;20116;-72
2021/12/14 01:11:19;;;;;;;14.55;3.63;;;;;;;;;;5042324;28;20037;-74
2021/12/14 01:13:59;;;;;;;9.05;3.15;;;;;;;;;;5033108;28;20041;-72
2021/12/14 01:16:47;;;;;;;10.45;3.47;;;;;;;;;;5034452;28;20385;-74
2021/12/14 01:19:18;;;;;;;12.60;4.13;;;;;;;;;;5047390;28;20068;-72
2021/12/14 01:24:42;;;;;;;10.80;4.00;;;;;;;;;;5032835;28;20048;-72
2021/12/14 01:27:14;;;;;;;9.95;4.40;;;;;;;;;;5032744;28;20460;-72
2021/12/14 01:29:41;;;;;;;8.35;4.10;;;;;;;;;;5031412;28;20045;-72
2021/12/14 01:32:07;;;;;;;9.93;4.40;;;;;;;;;;5039755;28;20116;-71
2021/12/14 01:34:35;;;;;;;16.47;4.30;;;;;;;;;;5034107;28;20096;-73
2021/12/14 01:37:06;;;;;;;10.25;4.30;;;;;;;;;;5033966;28;20052;-73
2021/12/14 01:42:21;;;;;;;14.93;5.45;;;;;;;;;;5033916;28;20046;-74
2021/12/14 01:44:52;;;;;;;9.57;4.50;;;;;;;;;;5042154;28;20083;-74
2021/12/14 01:47:26;;;;;;;13.68;4.40;;;;;;;;;;5027695;28;20505;-70
2021/12/14 01:49:52;;;;;;;10.07;5.00;;;;;;;;;;5033747;28;20033;-71
2021/12/14 01:52:22;;;;;;;16.87;5.33;;;;;;;;;;5032159;28;20362;-71
2021/12/14 01:54:52;;;;;;;7.80;4.63;;;;;;;;;;5032569;28;20056;-70
2021/12/14 01:57:23;;;;;;;15.43;5.13;;;;;;;;;;5049061;28;20029;-70
2021/12/14 01:59:54;;;;;;;15.60;4.93;;;;;;;;;;5032738;28;20036;-71
2021/12/14 02:02:42;;;;;;;12.65;5.00;;;;;;;;;;5032442;28;20025;-70
2021/12/14 02:05:23;;;;;;;12.20;4.68;;;;;;;;;;5021728;28;20087;-72
2021/12/14 02:07:50;;;;;;;8.98;4.25;;;;;;;;;;5032199;28;20428;-70
2021/12/14 02:10:22;;;;;;;14.73;4.60;;;;;;;;;;5032403;28;20033;-70
2021/12/14 02:12:48;;;;;;;11.18;4.63;;;;;;;;;;5032108;28;20033;-71
2021/12/14 02:15:27;;;;;;;11.93;4.10;;;;;;;;;;5032062;28;20054;-70
2021/12/14 02:17:54;;;;;;;10.98;4.32;;;;;;;;;;5032145;28;20033;-70
2021/12/14 02:20:25;;;;;;;11.48;5.07;;;;;;;;;;5033114;28;20060;-71
2021/12/14 02:22:50;;;;;;;11.70;4.80;;;;;;;;;;5033363;28;20025;-70
2021/12/14 02:25:16;;;;;;;13.40;5.07;;;;;;;;;;5033129;28;20492;-70
2021/12/14 02:27:46;;;;;;;12.90;5.30;;;;;;;;;;5049075;28;20120;-71
2021/12/14 02:30:17;;;;;;;13.98;5.10;;;;;;;;;;5034435;28;20167;-71
2021/12/14 02:32:42;;;;;;;17.13;5.03;;;;;;;;;;5033049;28;20041;-70
2021/12/14 02:35:12;;;;;;;26.30;5.80;;;;;;;;;;5032977;28;20432;-71
2021/12/14 02:37:51;;;;;;;24.50;6.30;;;;;;;;;;5026071;28;20027;-70
2021/12/14 02:40:31;;;;;;;23.13;5.88;;;;;;;;;;5028636;28;20080;-70
2021/12/14 02:42:58;;;;;;;18.35;6.28;;;;;;;;;;5033000;28;20533;-70
2021/12/14 02:45:24;;;;;;;20.35;6.75;;;;;;;;;;5032970;28;20108;-70
2021/12/14 02:47:51;;;;;;;18.48;6.80;;;;;;;;;;5033066;28;20041;-71
2021/12/14 02:50:17;;;;;;;25.55;6.50;;;;;;;;;;5031990;28;20061;-70
2021/12/14 02:52:43;;;;;;;21.73;6.97;;;;;;;;;;5048266;28;20061;-70
2021/12/14 02:55:20;;;;;;;22.77;8.17;;;;;;;;;;5032892;28;20389;-71
2021/12/14 02:57:49;;;;;;;18.30;6.78;;;;;;;;;;5019095;28;20034;-70
2021/12/14 03:00:22;;;;;;;25.23;8.27;;;;;;;;;;5031359;28;20087;-70
2021/12/14 03:02:48;;;;;;;29.20;8.55;;;;;;;;;;5031381;28;20044;-70
2021/12/14 03:05:22;;;;;;;17.30;7.37;;;;;;;;;;5031404;28;20041;-71
2021/12/14 03:07:52;;;;;;;16.67;7.22;;;;;;;;;;5032795;28;20042;-70
2021/12/14 03:12:58;;;;;;;18.20;7.22;;;;;;;;;;5030254;28;20037;-71
2021/12/14 03:15:45;;;;;;;17.63;7.20;;;;;;;;;;5051603;28;20473;-71
2021/12/14 03:18:14;;;;;;;21.00;6.68;;;;;;;;;;5025237;28;20087;-71
2021/12/14 03:21:11;;;;;;;19.95;9.10;;;;;;;;;;5051471;28;20444;-71
2021/12/14 03:23:40;;;;;;;18.40;7.32;;;;;;;;;;5031659;28;20447;-70
2021/12/14 03:26:09;;;;;;;26.52;7.35;;;;;;;;;;5036532;28;20091;-72
2021/12/14 03:28:36;;;;;;;21.77;7.32;;;;;;;;;;5035190;28;20025;-71
2021/12/14 03:31:04;;;;;;;;;;;;;;;;;;5046277;28;20021;-70
2021/12/14 03:33:33;;;;;;;18.92;6.60;;;;;;;;;;5036284;28;19925;-70
2021/12/14 03:36:06;;;;;;;12.18;5.63;;;;;;;;;;5036311;28;20072;-70
2021/12/14 03:39:06;;;;;;;17.85;5.40;;;;;;;;;;5035139;28;20045;-71
2021/12/14 03:41:37;;;;;;;12.10;5.22;;;;;;;;;;5026631;28;20040;-71
2021/12/14 03:44:10;;;;;;;10.82;5.60;;;;;;;;;;5018554;28;20037;-70
2021/12/14 03:46:43;;;;;;;14.63;5.15;;;;;;;;;;5051460;28;20410;-70
2021/12/14 03:49:09;;;;;;;16.08;5.07;;;;;;;;;;5051446;28;20033;-71
2021/12/14 03:51:35;;;;;;;16.88;5.60;;;;;;;;;;5036080;28;20123;-70
2021/12/14 03:54:01;;;;;;;15.65;5.70;;;;;;;;;;5034732;28;20041;-70
2021/12/14 03:56:27;;;;;;;13.87;5.97;;;;;;;;;;5036069;28;20049;-71
2021/12/14 03:58:52;;;;;;;11.65;4.72;;;;;;;;;;5051327;28;20076;-70
2021/12/14 04:01:30;;;;;;;14.40;4.70;;;;;;;;;;5035996;28;20401;-71
2021/12/14 04:04:01;;;;;;;9.43;4.72;;;;;;;;;;5027351;28;20087;-70
2021/12/14 04:06:27;;;;;;;14.82;4.88;;;;;;;;;;5034647;28;20049;-71
2021/12/14 04:08:54;;;;;;;11.63;4.70;;;;;;;;;;5051064;28;20028;-70
2021/12/14 04:11:19;;;;;;;17.30;4.82;;;;;;;;;;5034566;28;20037;-71
2021/12/14 04:13:47;;;;;;;16.97;4.80;;;;;;;;;;5034820;28;20052;-70
2021/12/14 04:16:16;;;;;;;16.80;5.38;;;;;;;;;;5025646;28;20030;-71
2021/12/14 04:18:42;;;;;;;11.80;4.78;;;;;;;;;;5034383;28;20119;-70
2021/12/14 04:21:08;;;;;;;11.77;4.07;;;;;;;;;;5050998;28;20077;-73
2021/12/14 04:23:39;;;;;;;13.20;4.33;;;;;;;;;;5034415;28;20033;-71
2021/12/14 04:26:07;;;;;;;13.88;4.10;;;;;;;;;;5050744;28;20271;-72
2021/12/14 04:28:38;;;;;;;12.05;4.57;;;;;;;;;;5033842;28;20045;-71
2021/12/14 04:31:04;;;;;;;11.68;4.43;;;;;;;;;;5039207;28;20120;-74
2021/12/14 04:33:34;;;;;;;17.03;4.43;;;;;;;;;;5035040;28;20117;-73
2021/12/14 04:36:04;;;;;;;9.65;4.25;;;;;;;;;;5050625;28;20038;-73
2021/12/14 04:38:32;;;;;;;13.00;4.38;;;;;;;;;;5033627;28;20540;-73
2021/12/14 04:52:10;;;;;;;20.08;4.97;;;;;;;;;;5034475;28;20107;-71
2021/12/14 04:54:41;;;;;;;8.68;3.83;;;;;;;;;;5034901;28;20059;-70
2021/12/14 04:57:31;;;;;;;14.10;3.65;;;;;;;;;;5034819;28;20056;-71
2021/12/14 05:00:01;;;;;;;13.13;3.92;;;;;;;;;;5024878;28;20411;-70
2021/12/14 05:02:30;;;;;;;16.02;4.65;;;;;;;;;;5030377;28;20128;-73
2021/12/14 05:04:57;;;;;;;9.48;3.63;;;;;;;;;;5033478;28;20033;-72
2021/12/14 05:09:59;;;;;;;10.23;3.03;;;;;;;;;;5034574;28;19948;-72
2021/12/14 05:12:28;;;;;;;15.02;5.47;;;;;;;;;;5016823;28;20041;-70
2021/12/14 05:14:55;;;;;;;9.23;4.28;;;;;;;;;;5029104;28;20068;-70
2021/12/14 05:17:32;;;;;;;14.27;3.95;;;;;;;;;;5033331;28;20116;-70
2021/12/14 05:19:58;;;;;;;6.80;3.20;;;;;;;;;;5033677;28;20040;-70
2021/12/14 05:22:28;;;;;;;11.38;3.78;;;;;;;;;;5034441;28;20025;-69
2021/12/14 05:24:57;;;;;;;10.02;3.67;;;;;;;;;;5033220;28;20033;-70
2021/12/14 05:27:34;;;;;;;16.52;5.75;;;;;;;;;;5034134;28;20053;-70
2021/12/14 05:30:18;;;;;;;10.25;4.65;;;;;;;;;;5030815;28;20034;-70
2021/12/14 05:32:45;;;;;;;16.88;3.78;;;;;;;;;;5032790;28;20029;-70
2021/12/14 05:35:14;;;;;;;9.35;4.25;;;;;;;;;;5032542;28;20045;-70
2021/12/14 05:37:47;;;;;;;10.45;3.92;;;;;;;;;;5016246;28;20052;-70
2021/12/14 05:43:14;;;;;;;9.57;4.30;;;;;;;;;;5033687;28;20037;-70
2021/12/14 05:45:42;;;;;;;11.80;4.18;;;;;;;;;;5033337;28;20566;-70
2021/12/14 05:48:09;;;;;;;14.43;3.30;;;;;;;;;;5034060;28;20493;-70
2021/12/14 05:50:39;;;;;;;8.27;3.75;;;;;;;;;;5032286;28;20488;-70
2021/12/14 05:53:06;;;;;;;11.10;3.45;;;;;;;;;;5032605;28;20041;-70
2021/12/14 05:55:35;;;;;;;10.38;4.25;;;;;;;;;;5049030;28;20037;-70
2021/12/14 05:58:02;;;;;;;12.15;3.95;;;;;;;;;;5032488;28;20029;-70
2021/12/14 06:00:28;;;;;;;;;;;;;;;;;;5033899;28;20436;-70
2021/12/14 06:02:54;;;;;;;13.15;4.45;;;;;;;;;;5033528;28;19920;-70
2021/12/14 06:05:21;;;;;;;15.53;4.83;;;;;;;;;;5032305;28;20041;-70
2021/12/14 06:07:47;;;;;;;15.43;4.50;;;;;;;;;;5032430;28;20037;-70
2021/12/14 06:10:14;;;;;;;14.82;5.03;;;;;;;;;;5033451;28;20116;-70
2021/12/14 06:12:41;;;;;;;10.52;4.13;;;;;;;;;;5033554;28;20041;-70
2021/12/14 06:15:13;;;;;;;12.70;5.35;;;;;;;;;;5048915;28;20041;-70
2021/12/14 06:17:40;;;;;;;17.00;5.75;;;;;;;;;;5032081;28;20045;-70
2021/12/14 06:20:10;;;;;;;10.05;4.60;;;;;;;;;;5032202;28;20045;-70
2021/12/14 06:22:36;;;;;;;9.73;4.65;;;;;;;;;;5047554;28;20041;-70
2021/12/14 06:25:07;;;;;;;8.75;4.07;;;;;;;;;;5031864;28;20465;-70
2021/12/14 06:27:32;;;;;;;15.38;4.88;;;;;;;;;;5025993;28;20563;-70
2021/12/14 06:30:11;;;;;;;10.10;4.87;;;;;;;;;;5034579;28;20037;-70
2021/12/14 06:32:44;;;;;;;9.32;4.97;;;;;;;;;;5031899;28;20485;-70
2021/12/14 06:35:18;;;;;;;11.45;4.80;;;;;;;;;;5031944;28;20064;-70
2021/12/14 06:38:09;;;;;;;17.05;4.53;;;;;;;;;;5030314;28;20482;-70
2021/12/14 06:40:49;;;;;;;9.10;4.60;;;;;;;;;;5032729;28;20835;-70
2021/12/14 06:43:26;;;;;;;12.98;4.18;;;;;;;;;;5032561;28;20185;-70
2021/12/14 06:45:57;;;;;;;9.40;4.15;;;;;;;;;;5031476;28;20084;-73
2021/12/14 06:48:44;;;;;;;11.77;4.30;;;;;;;;;;5030791;28;20034;-72
2021/12/14 06:51:12;;;;;;;10.40;3.97;;;;;;;;;;5031825;28;20041;-73
2021/12/14 06:53:38;;;;;;;13.88;4.03;;;;;;;;;;5047972;28;20477;-72
2021/12/14 06:56:07;;;;;;;16.85;4.82;;;;;;;;;;5048287;28;20072;-70
2021/12/14 06:58:38;;;;;;;12.20;4.32;;;;;;;;;;5032744;28;20041;-70
2021/12/14 07:01:06;;;;;;;9.02;4.47;;;;;;;;;;5031796;28;20041;-72
2021/12/14 07:03:56;;;;;;;10.68;4.53;;;;;;;;;;5048066;28;20053;-72
2021/12/14 07:06:27;;;;;;;11.23;4.50;;;;;;;;;;5023156;28;20049;-72
2021/12/14 07:08:56;;;;;;;12.60;5.55;;;;;;;;;;5032885;28;20123;-72
2021/12/14 07:11:24;;;;;;;10.77;4.75;;;;;;;;;;5048026;28;20042;-72
2021/12/14 07:13:50;;;;;;;9.57;5.13;;;;;;;;;;5032682;28;20038;-72
2021/12/14 07:16:27;;;;;;;16.77;4.90;;;;;;;;;;5032715;28;20033;-72
2021/12/14 07:18:56;;;;;;;12.53;5.10;;;;;;;;;;5027060;28;20485;-72
2021/12/14 07:21:42;;;;;;;14.10;5.05;;;;;;;;;;5042850;28;20371;-70
2021/12/14 07:24:22;;;;;;;15.00;4.80;;;;;;;;;;5032683;28;20064;-70
2021/12/14 07:27:12;;;;;;;8.65;4.57;;;;;;;;;;5028844;28;20029;-70
2021/12/14 07:29:38;;;;;;;8.85;4.78;;;;;;;;;;5035338;28;20068;-70
2021/12/14 07:32:04;;;;;;;13.37;4.43;;;;;;;;;;5036697;28;20084;-70
2021/12/14 07:34:29;;;;;;;10.57;4.53;;;;;;;;;;5034190;28;20496;-70
2021/12/14 07:36:54;;;;;;;12.27;4.70;;;;;;;;;;5032505;28;20052;-70
2021/12/14 07:39:20;;;;;;;13.60;4.53;;;;;;;;;;5032615;28;20101;-71
2021/12/14 07:41:54;;;;;;;12.37;4.60;;;;;;;;;;5047918;28;20041;-71
2021/12/14 07:44:26;;;;;;;13.52;4.88;;;;;;;;;;5012893;28;20409;-72
2021/12/14 07:46:59;;;;;;;12.23;3.50;;;;;;;;;;5031217;28;20034;-71
2021/12/14 07:49:29;;;;;;;7.90;3.70;;;;;;;;;;5032399;28;20083;-72
2021/12/14 07:52:05;;;;;;;12.07;4.13;;;;;;;;;;5021627;28;20044;-72
2021/12/14 07:54:34;;;;;;;11.18;3.90;;;;;;;;;;5032278;28;20033;-71
2021/12/14 07:57:06;;;;;;;12.05;5.18;;;;;;;;;;5032000;28;20456;-71
2021/12/14 07:59:36;;;;;;;9.77;4.35;;;;;;;;;;5035109;28;20037;-73
2021/12/14 08:02:20;;;;;;;9.52;5.13;;;;;;;;;;5033390;28;20042;-72
2021/12/14 08:04:50;;;;;;;10.23;4.95;;;;;;;;;;5034529;28;20041;-72
2021/12/14 08:07:26;;;;;;;14.30;5.90;;;;;;;;;;5035541;28;20374;-74
2021/12/14 08:09:54;;;;;;;8.73;4.40;;;;;;;;;;5033513;28;20037;-72
2021/12/14 08:12:28;;;;;;;11.40;4.65;;;;;;;;;;5035644;28;20094;-71
2021/12/14 08:15:14;;;;;;;11.70;5.57;;;;;;;;;;5033302;28;20037;-71
2021/12/14 08:17:41;;;;;;;9.48;4.28;;;;;;;;;;5035173;28;20064;-71
2021/12/14 08:20:14;;;;;;;;;;;;;;;;;;5051191;28;20366;-71
2021/12/14 08:22:41;;;;;;;7.90;3.92;;;;;;;;;;5050577;28;19921;-70
2021/12/14 08:25:10;;;;;;;11.02;4.35;;;;;;;;;;5035444;28;20077;-71
2021/12/14 08:27:37;;;;;;;11.77;4.47;;;;;;;;;;5033362;28;20037;-70
2021/12/14 08:30:07;;;;;;;8.02;4.50;;;;;;;;;;5038966;28;20477;-71
2021/12/14 08:32:35;;;;;;;7.03;4.15;;;;;;;;;;5034427;28;20042;-71
2021/12/14 08:35:06;;;;;;;10.82;4.88;;;;;;;;;;5035170;28;20041;-71
2021/12/14 08:37:37;;;;;;;8.77;4.38;;;;;;;;;;5035248;28;20036;-70
2021/12/14 08:40:11;;;;;;;11.32;5.00;;;;;;;;;;5047506;28;20041;-70
2021/12/14 08:42:49;;;;;;;9.40;4.53;;;;;;;;;;5034993;28;20098;-70
2021/12/14 08:45:26;;;;;;;16.58;5.07;;;;;;;;;;5022137;28;20045;-72
2021/12/14 08:48:13;;;;;;;10.98;4.63;;;;;;;;;;5034929;28;20041;-70
2021/12/14 08:50:46;;;;;;;11.43;4.10;;;;;;;;;;5030241;28;20508;-73
2021/12/14 08:53:12;;;;;;;13.82;5.05;;;;;;;;;;5026703;28;20103;-73
2021/12/14 08:55:39;;;;;;;10.25;4.35;;;;;;;;;;5028799;28;20462;-73
2021/12/14 08:58:06;;;;;;;9.48;4.85;;;;;;;;;;5031159;28;20049;-77
2021/12/14 09:00:40;;;;;;;5.32;4.00;;;;;;;;;;5032794;28;20042;-77
2021/12/14 09:03:09;;;;;;;14.52;4.90;;;;;;;;;;5029093;28;20037;-73
2021/12/14 09:05:46;;;;;;;10.15;4.43;;;;;;;;;;5045469;28;20033;-73
2021/12/14 09:08:12;;;;;;;8.10;4.60;;;;;;;;;;5030778;28;20044;-73
2021/12/14 09:10:39;;;;;;;8.23;4.25;;;;;;;;;;5031051;28;20116;-74
2021/12/14 09:13:08;;;;;;;11.48;4.10;;;;;;;;;;5031395;28;20937;-74
2021/12/14 09:15:43;;;;;;;5.00;3.55;;;;;;;;;;5030995;28;20073;-73
2021/12/14 09:18:10;;;;;;;6.72;3.70;;;;;;;;;;5030190;28;20136;-74
2021/12/14 09:20:49;;;;;;;7.55;3.97;;;;;;;;;;5024058;28;20072;-73
2021/12/14 09:23:24;;;;;;;10.32;4.00;;;;;;;;;;5031730;28;20090;-73
2021/12/14 09:25:50;;;;;;;7.78;4.97;;;;;;;;;;5036259;28;20037;-77
2021/12/14 09:28:17;;;;;;;13.63;4.97;;;;;;;;;;5031817;28;20053;-73
2021/12/14 09:30:48;;;;;;;9.55;4.82;;;;;;;;;;5031441;28;20069;-73
2021/12/14 09:33:16;;;;;;;10.32;4.38;;;;;;;;;;5027027;28;20053;-73
2021/12/14 09:35:43;;;;;;;7.95;4.70;;;;;;;;;;5030473;28;20064;-73
2021/12/14 09:38:12;;;;;;;15.70;6.25;;;;;;;;;;5030088;28;20025;-73
2021/12/14 09:40:46;;;;;;;6.05;3.72;;;;;;;;;;5039431;28;20418;-73
2021/12/14 09:43:12;;;;;;;5.95;3.30;;;;;;;;;;5030696;28;20490;-73
2021/12/14 09:45:44;;;;;;;4.27;3.50;;;;;;;;;;5030536;28;20115;-73
2021/12/14 09:48:23;;;;;;;6.53;3.35;;;;;;;;;;5028774;28;20282;-73
2021/12/14 09:50:50;;;;;;;8.88;3.55;;;;;;;;;;5027442;28;20123;-76
2021/12/14 09:53:20;;;;;;;8.98;3.30;;;;;;;;;;5029357;28;20038;-73
2021/12/14 09:55:47;;;;;;;7.65;3.35;;;;;;;;;;5029158;28;20038;-73
2021/12/14 09:58:23;;;;;;;7.70;2.63;;;;;;;;;;5027463;28;20068;-73
2021/12/14 10:00:57;;;;;;;5.35;2.78;;;;;;;;;;5029091;28;20045;-73
2021/12/14 10:03:23;;;;;;;6.55;3.65;;;;;;;;;;5030474;28;20033;-74
2021/12/14 10:05:54;;;;;;;4.20;2.35;;;;;;;;;;5028573;28;20045;-73
2021/12/14 10:08:26;;;;;;;2.92;2.10;;;;;;;;;;5043834;28;20045;-73
2021/12/14 10:11:03;;;;;;;3.45;2.60;;;;;;;;;;5028883;28;20037;-73
2021/12/14 10:13:29;;;;;;;8.40;3.20;;;;;;;;;;5020751;28;20087;-73
2021/12/14 10:15:57;;;;;;;4.93;3.15;;;;;;;;;;5045437;28;20036;-74
2021/12/14 10:18:29;;;;;;;7.68;3.10;;;;;;;;;;5027230;28;20409;-73
2021/12/14 10:21:04;;;;;;;4.40;2.63;;;;;;;;;;5044266;28;20037;-73
2021/12/14 10:23:31;;;;;;;5.28;3.55;;;;;;;;;;5029843;28;20203;-73
2021/12/14 10:25:57;;;;;;;7.82;4.22;;;;;;;;;;5030151;28;20405;-73
2021/12/14 10:28:25;;;;;;;6.97;3.25;;;;;;;;;;5029917;28;20477;-74
2021/12/14 10:30:56;;;;;;;4.35;2.90;;;;;;;;;;5030421;28;20478;-73
2021/12/14 10:33:24;;;;;;;9.35;3.75;;;;;;;;;;5029140;28;20454;-74
2021/12/14 10:35:55;;;;;;;8.60;4.55;;;;;;;;;;5029214;28;20132;-73
2021/12/14 10:38:30;;;;;;;5.95;3.50;;;;;;;;;;5028636;28;20047;-73
2021/12/14 10:43:47;;;;;;;4.60;3.15;;;;;;;;;;5029149;28;20103;-73
2021/12/14 10:46:26;;;;;;;11.10;4.43;;;;;;;;;;5027067;28;21206;-73
2021/12/14 10:48:53;;;;;;;6.28;2.80;;;;;;;;;;5018242;28;20037;-73
2021/12/14 10:51:22;;;;;;;3.35;2.42;;;;;;;;;;5027695;28;20038;-75
2021/12/14 10:53:50;;;;;;;3.85;2.22;;;;;;;;;;5029637;28;20096;-73
2021/12/14 10:56:19;;;;;;;3.78;2.30;;;;;;;;;;5028941;28;20513;-73
2021/12/14 10:58:52;;;;;;;8.88;2.38;;;;;;;;;;5029325;28;20064;-73
2021/12/14 11:01:25;;;;;;;5.00;2.40;;;;;;;;;;5028200;28;20040;-73
2021/12/14 11:03:55;;;;;;;5.80;2.78;;;;;;;;;;5028024;28;20478;-73
2021/12/14 11:06:27;;;;;;;7.88;3.17;;;;;;;;;;5019535;28;20592;-74
2021/12/14 11:11:33;;;;;;;5.38;3.45;;;;;;;;;;5044308;28;20045;-73
2021/12/14 11:14:02;;;;;;;5.68;3.30;;;;;;;;;;5025099;28;20130;-73
2021/12/14 11:18:08;;;;;;;4.38;2.90;;;;;;;;;;5029768;28;20041;-73
2021/12/14 11:19:18;;;;;;;4.53;2.97;;;;;;;;;;5029016;28;20120;-73
2021/12/14 11:21:44;;;;;;;2.40;2.10;;;;;;;;;;5029376;28;20577;-73
2021/12/14 11:24:09;;;;;;;7.43;2.57;;;;;;;;;;5044430;28;20033;-73
2021/12/14 11:26:35;;;;;;;6.33;2.57;;;;;;;;;;5029223;28;20029;-73
2021/12/14 11:29:10;;;;;;;2.83;1.90;;;;;;;;;;5044549;28;20112;-73
2021/12/14 11:31:50;;;;;;;6.63;2.15;;;;;;;;;;5029040;28;20535;-73
2021/12/14 11:34:18;;;;;;;4.18;2.00;;;;;;;;;;5033217;28;20048;-73
2021/12/14 11:36:51;;;;;;;3.75;2.42;;;;;;;;;;5019259;28;20044;-73
2021/12/14 11:39:27;;;;;;;3.85;1.95;;;;;;;;;;5031743;28;20041;-73
2021/12/14 11:42:03;;;;;;;4.38;2.30;;;;;;;;;;5032033;28;20212;-74
2021/12/14 11:44:33;;;;;;;5.60;2.28;;;;;;;;;;5032543;28;20099;-73
2021/12/14 11:49:53;;;;;;;4.53;2.15;;;;;;;;;;5030991;28;20045;-73
2021/12/14 11:52:53;;;;;;;5.47;2.35;;;;;;;;;;5032377;28;20048;-73
2021/12/14 11:55:51;;;;;;;2.80;2.05;;;;;;;;;;5027850;28;20053;-73
2021/12/14 11:58:33;;;;;;;4.80;2.08;;;;;;;;;;5023964;28;20041;-73
2021/12/14 12:01:17;;;;;;;3.65;2.35;;;;;;;;;;5021580;28;20037;-75
2021/12/14 12:03:42;;;;;;;3.88;2.40;;;;;;;;;;5028375;28;20457;-74
2021/12/14 12:06:31;;;;;;;4.00;2.40;;;;;;;;;;5031722;28;20041;-77
2021/12/14 12:11:44;;;;;;;2.63;2.35;;;;;;;;;;5044973;28;20060;-74
2021/12/14 12:14:30;;;;;;;4.90;2.08;;;;;;;;;;5030784;28;20770;-77
2021/12/14 12:17:27;;;;;;;6.90;2.95;;;;;;;;;;5028371;28;20095;-73
2021/12/14 12:20:05;;;;;;;3.88;2.65;;;;;;;;;;5031853;28;20103;-73
2021/12/14 12:22:34;;;;;;;3.28;2.38;;;;;;;;;;5017722;28;20048;-73
2021/12/14 12:25:01;;;;;;;2.70;1.65;;;;;;;;;;5047067;28;20073;-73
2021/12/14 12:27:29;;;;;;;2.65;2.00;;;;;;;;;;5045408;28;20118;-74
2021/12/14 12:30:26;;;;;;;2.95;1.40;;;;;;;;;;5031011;28;20037;-74
2021/12/14 12:32:52;;;;;;;4.95;2.17;;;;;;;;;;5023525;28;20088;-73
2021/12/14 12:35:25;;;;;;;4.83;1.97;;;;;;;;;;5030963;28;20470;-74
2021/12/14 12:37:52;;;;;;;4.07;2.42;;;;;;;;;;5031412;28;20379;-73
2021/12/14 12:40:18;;;;;;;;;;;;;;;;;;5031085;28;20045;-73
2021/12/14 12:42:44;;;;;;;2.00;1.50;;;;;;;;;;5031042;28;19917;-74
2021/12/14 12:45:34;;;;;;;3.60;2.65;;;;;;;;;;5043739;28;20104;-73
2021/12/14 12:48:02;;;;;;;2.22;2.03;;;;;;;;;;5030357;28;20425;-73
2021/12/14 12:50:28;;;;;;;2.00;1.80;;;;;;;;;;5030451;28;20072;-79
2021/12/14 12:52:55;;;;;;;2.33;1.73;;;;;;;;;;5030128;28;20037;-74
2021/12/14 12:55:30;;;;;;;2.08;1.67;;;;;;;;;;5031454;28;20045;-74
2021/12/14 12:58:11;;;;;;;1.95;1.65;;;;;;;;;;5045984;28;20041;-76
2021/12/14 13:00:44;;;;;;;2.47;2.25;;;;;;;;;;5044511;28;20076;-73
2021/12/14 13:03:09;;;;;;;2.85;2.03;;;;;;;;;;5028352;28;20437;-73
2021/12/14 13:05:35;;;;;;;5.17;2.33;;;;;;;;;;5039581;28;20043;-78
2021/12/14 13:08:21;;;;;;;3.30;2.20;;;;;;;;;;5031727;28;20035;-73
2021/12/14 13:11:04;;;;;;;2.60;2.10;;;;;;;;;;5030783;28;20390;-74
2021/12/14 13:13:29;;;;;;;4.70;2.28;;;;;;;;;;5030347;28;20064;-74
2021/12/14 13:16:46;;;;;;;2.50;1.93;;;;;;;;;;5031390;28;20382;-73
2021/12/14 13:19:17;;;;;;;5.03;2.33;;;;;;;;;;4997607;28;20072;-77
2021/12/14 13:22:00;;;;;;;5.13;2.38;;;;;;;;;;5046142;28;20049;-77
2021/12/14 13:24:34;;;;;;;4.13;2.17;;;;;;;;;;5030842;28;20034;-73
2021/12/14 13:27:00;;;;;;;1.83;1.40;;;;;;;;;;5026872;28;20041;-75
2021/12/14 13:29:31;;;;;;;3.60;1.57;;;;;;;;;;5033966;28;20436;-73
2021/12/14 13:31:58;;;;;;;1.45;1.33;;;;;;;;;;5038709;28;20038;-73
2021/12/14 13:34:28;;;;;;;7.78;2.00;;;;;;;;;;5039610;28;20112;-74
2021/12/14 13:36:54;;;;;;;22.05;12.30;;;;;;;;;;5039838;28;20049;-73
2021/12/14 13:39:20;;;;;;;7.43;3.50;;;;;;;;;;5037933;28;20045;-78
2021/12/14 13:41:58;;;;;;;26.02;17.95;;;;;;;;;;5039389;28;20037;-73
2021/12/14 13:44:25;;;;;;;2.13;1.55;;;;;;;;;;5039171;28;20069;-75
2021/12/14 13:46:50;;;;;;;;;;;;;;;;;;5040312;28;20382;-73
2021/12/14 13:49:16;;;;;;;3.25;1.27;;;;;;;;;;5038876;28;19924;-73
2021/12/14 13:51:41;;;;;;;8.43;4.37;;;;;;;;;;5040524;28;20021;-73
2021/12/14 13:54:08;;;;;;;3.40;1.43;;;;;;;;;;5038384;28;20048;-73
2021/12/14 13:56:37;;;;;;;46.35;34.05;;;;;;;;;;5037211;28;20064;-73
2021/12/14 13:59:04;;;;;;;1.55;1.08;;;;;;;;;;5035769;28;20044;-73
2021/12/14 14:01:30;;;;;;;;;;;;;;;;;;5038085;28;20091;-74
2021/12/14 14:04:01;;;;;;;1.20;0.90;;;;;;;;;;5039006;28;19923;-74
2021/12/14 14:06:28;;;;;;;1.33;0.90;;;;;;;;;;5039865;28;20036;-73
2021/12/14 14:09:07;;;;;;;3.20;0.85;;;;;;;;;;5054750;28;20042;-73
2021/12/14 14:11:42;;;;;;;1.30;1.10;;;;;;;;;;5038311;28;20053;-74
2021/12/14 14:14:21;;;;;;;1.73;0.65;;;;;;;;;;5037675;28;20086;-74
2021/12/14 14:17:09;;;;;;;5.18;1.25;;;;;;;;;;5038690;28;20033;-73
2021/12/14 14:20:00;;;;;;;10.15;5.63;;;;;;;;;;5036365;28;20049;-73
2021/12/14 14:22:34;;;;;;;2.95;0.57;;;;;;;;;;5031582;28;20057;-74
2021/12/14 14:25:07;;;;;;;0.95;0.40;;;;;;;;;;5045171;28;20051;-73
2021/12/14 14:27:46;;;;;;;1.20;0.90;;;;;;;;;;5028577;28;20049;-75
2021/12/14 14:30:24;;;;;;;2.00;0.50;;;;;;;;;;5035204;28;20044;-73
2021/12/14 14:33:26;;;;;;;;;;;;;;;;;;5038765;28;20037;-73
2021/12/14 14:35:58;;;;;;;1.10;0.50;;;;;;;;;;5037170;28;20058;-73
2021/12/14 14:38:26;;;;;;;0.60;0.30;;;;;;;;;;5039116;28;20037;-73
2021/12/14 14:41:11;;;;;;;2.00;0.55;;;;;;;;;;5037966;28;20037;-73
2021/12/14 14:44:15;;;;;;;1.13;0.80;;;;;;;;;;5039084;28;20109;-73
2021/12/14 14:46:40;;;;;;;1.23;1.02;;;;;;;;;;5020184;28;20155;-73
2021/12/14 14:49:08;;;;;;;1.47;0.80;;;;;;;;;;5029375;28;20068;-74
2021/12/14 14:51:54;;;;;;;7.10;2.60;;;;;;;;;;5028678;28;20041;-74
2021/12/14 14:54:28;;;;;;;1.63;0.95;;;;;;;;;;5029084;28;20041;-73
2021/12/14 14:56:53;;;;;;;1.35;0.85;;;;;;;;;;5025214;28;20061;-73
2021/12/14 14:59:19;;;;;;;3.83;1.40;;;;;;;;;;5028987;28;20069;-73
2021/12/14 15:01:46;;;;;;;2.57;1.20;;;;;;;;;;5027447;28;20940;-73
2021/12/14 15:04:11;;;;;;;2.92;1.13;;;;;;;;;;5026290;28;20428;-73
2021/12/14 15:06:39;;;;;;;2.37;1.20;;;;;;;;;;5043062;28;20099;-73
2021/12/14 15:09:27;;;;;;;2.55;1.48;;;;;;;;;;5032080;28;20026;-73
2021/12/14 15:11:56;;;;;;;6.47;4.05;;;;;;;;;;5032880;28;20077;-73
2021/12/14 15:14:31;;;;;;;7.32;4.25;;;;;;;;;;5031624;28;20035;-73
2021/12/14 15:17:00;;;;;;;9.10;5.05;;;;;;;;;;5033508;28;20087;-73
2021/12/14 15:19:27;;;;;;;10.13;3.85;;;;;;;;;;5048688;28;20033;-73
2021/12/14 15:22:00;;;;;;;9.02;2.97;;;;;;;;;;5031315;28;20053;-73
2021/12/14 15:24:28;;;;;;;6.82;1.65;;;;;;;;;;5031502;28;20404;-74
2021/12/14 15:27:19;;;;;;;4.65;1.98;;;;;;;;;;5030463;28;20041;-73
2021/12/14 15:29:53;;;;;;;4.55;2.05;;;;;;;;;;5026396;28;20045;-73
2021/12/14 15:32:23;;;;;;;3.70;1.80;;;;;;;;;;5032260;28;20112;-74
2021/12/14 15:34:55;;;;;;;7.82;2.60;;;;;;;;;;5030992;28;20489;-73
2021/12/14 15:37:57;;;;;;;3.00;1.92;;;;;;;;;;5032211;28;20033;-74
2021/12/14 15:40:26;;;;;;;3.13;2.05;;;;;;;;;;5027827;28;20053;-73
2021/12/14 15:43:00;;;;;;;2.65;1.60;;;;;;;;;;5031774;28;20076;-73
2021/12/14 15:45:55;;;;;;;4.35;1.88;;;;;;;;;;5032229;28;20038;-74